createdAt,value
2024-01-24T00:00:55.032Z,939.00
2024-01-24T00:01:54.980Z,939.00
2024-01-24T00:02:55.072Z,939.00
2024-01-24T00:03:55.163Z,940.00
2024-01-24T00:04:55.165Z,940.00
2024-01-24T00:05:55.160Z,937.00
2024-01-24T00:06:55.241Z,937.00
2024-01-24T00:07:55.236Z,936.00
2024-01-24T00:08:55.297Z,934.00
2024-01-24T00:09:55.349Z,931.00
2024-01-24T00:10:55.384Z,930.00
2024-01-24T00:11:55.485Z,929.00
2024-01-24T00:12:55.498Z,929.00
2024-01-24T00:13:55.504Z,927.00
2024-01-24T00:14:55.549Z,924.00
2024-01-24T00:15:55.627Z,925.00
2024-01-24T00:16:55.645Z,925.00
2024-01-24T00:17:55.747Z,924.00
2024-01-24T00:18:55.776Z,923.00
2024-01-24T00:19:55.767Z,923.00
2024-01-24T00:20:55.810Z,920.00
2024-01-24T00:21:55.878Z,920.00
2024-01-24T00:22:55.903Z,922.00
2024-01-24T00:23:55.952Z,921.00
2024-01-24T00:24:56.076Z,918.00
2024-01-24T00:25:56.038Z,917.00
2024-01-24T00:26:56.063Z,917.00
2024-01-24T00:27:56.104Z,918.00
2024-01-24T00:28:56.143Z,916.00
2024-01-24T00:29:56.182Z,916.00
2024-01-24T00:30:56.249Z,919.00
2024-01-24T00:31:56.275Z,919.00
2024-01-24T00:32:56.400Z,921.00
2024-01-24T00:33:56.457Z,923.00
2024-01-24T00:34:56.401Z,922.00
2024-01-24T00:35:56.442Z,924.00
2024-01-24T00:36:56.503Z,923.00
2024-01-24T00:37:56.531Z,924.00
2024-01-24T00:38:56.601Z,925.00
2024-01-24T00:39:56.631Z,926.00
2024-01-24T00:40:56.691Z,925.00
2024-01-24T00:41:56.718Z,926.00
2024-01-24T00:42:56.757Z,925.00
2024-01-24T00:43:56.808Z,927.00
2024-01-24T00:44:56.855Z,927.00
2024-01-24T00:45:57.017Z,924.00
2024-01-24T00:46:56.984Z,924.00
2024-01-24T00:47:57.016Z,926.00
2024-01-24T00:49:00.342Z,926.00
2024-01-24T00:49:57.042Z,925.00
2024-01-24T00:50:57.019Z,927.00
2024-01-24T00:51:57.037Z,925.00
2024-01-24T00:52:57.020Z,922.00
2024-01-24T00:53:57.056Z,921.00
2024-01-24T00:54:57.040Z,920.00
2024-01-24T00:55:57.055Z,922.00
2024-01-24T00:56:57.022Z,921.00
2024-01-24T00:57:57.033Z,918.00
2024-01-24T00:58:57.037Z,917.00
2024-01-24T00:59:57.055Z,916.00
2024-01-24T01:00:57.168Z,911.00
2024-01-24T01:01:57.038Z,908.00
2024-01-24T01:02:57.064Z,906.00
2024-01-24T01:03:57.102Z,906.00
2024-01-24T01:04:57.111Z,905.00
2024-01-24T01:05:57.040Z,905.00
2024-01-24T01:06:57.049Z,903.00
2024-01-24T01:07:57.048Z,903.00
2024-01-24T01:08:57.034Z,905.00
2024-01-24T01:09:57.042Z,905.00
2024-01-24T01:10:57.053Z,905.00
2024-01-24T01:11:57.057Z,904.00
2024-01-24T01:12:57.157Z,905.00
2024-01-24T01:13:57.069Z,904.00
2024-01-24T01:14:57.050Z,904.00
2024-01-24T01:15:57.122Z,903.00
2024-01-24T01:16:57.053Z,901.00
2024-01-24T01:17:57.128Z,901.00
2024-01-24T01:18:57.113Z,900.00
2024-01-24T01:19:57.054Z,898.00
2024-01-24T01:20:57.046Z,893.00
2024-01-24T01:21:57.121Z,891.00
2024-01-24T01:22:57.059Z,892.00
2024-01-24T01:23:57.064Z,891.00
2024-01-24T01:24:59.498Z,888.00
2024-01-24T01:25:57.101Z,888.00
2024-01-24T01:26:57.076Z,888.00
2024-01-24T01:27:57.100Z,889.00
2024-01-24T01:28:57.056Z,890.00
2024-01-24T01:29:57.070Z,893.00
2024-01-24T01:30:57.146Z,895.00
2024-01-24T01:31:57.079Z,893.00
2024-01-24T01:32:57.216Z,892.00
2024-01-24T01:33:57.192Z,893.00
2024-01-24T01:34:57.070Z,893.00
2024-01-24T01:36:08.768Z,892.00
2024-01-24T01:36:58.177Z,891.00
2024-01-24T01:37:57.089Z,889.00
2024-01-24T01:38:57.093Z,888.00
2024-01-24T01:39:57.125Z,886.00
2024-01-24T01:40:57.075Z,890.00
2024-01-24T01:41:57.112Z,888.00
2024-01-24T01:42:57.095Z,887.00
2024-01-24T01:43:57.091Z,887.00
2024-01-24T01:44:57.094Z,886.00
2024-01-24T01:45:57.136Z,885.00
2024-01-24T01:46:57.104Z,882.00
2024-01-24T01:47:57.153Z,882.00
2024-01-24T01:48:57.214Z,879.00
2024-01-24T01:49:57.193Z,879.00
2024-01-24T01:50:57.103Z,882.00
2024-01-24T01:51:57.171Z,880.00
2024-01-24T01:52:57.145Z,881.00
2024-01-24T01:53:57.175Z,881.00
2024-01-24T01:54:57.230Z,879.00
2024-01-24T01:55:57.268Z,880.00
2024-01-24T01:56:57.291Z,883.00
2024-01-24T01:57:57.379Z,885.00
2024-01-24T01:58:57.381Z,886.00
2024-01-24T01:59:57.419Z,883.00
2024-01-24T02:00:57.496Z,881.00
2024-01-24T02:02:01.822Z,882.00
2024-01-24T02:02:57.519Z,881.00
2024-01-24T02:03:57.565Z,881.00
2024-01-24T02:04:57.485Z,879.00
2024-01-24T02:05:57.541Z,877.00
2024-01-24T02:06:57.526Z,878.00
2024-01-24T02:07:57.596Z,876.00
2024-01-24T02:08:57.501Z,876.00
2024-01-24T02:09:57.591Z,877.00
2024-01-24T02:10:57.515Z,875.00
2024-01-24T02:11:57.523Z,874.00
2024-01-24T02:12:57.533Z,873.00
2024-01-24T02:13:57.518Z,875.00
2024-01-24T02:14:57.516Z,876.00
2024-01-24T02:15:57.583Z,874.00
2024-01-24T02:16:57.546Z,872.00
2024-01-24T02:17:57.664Z,873.00
2024-01-24T02:18:57.671Z,874.00
2024-01-24T02:19:57.578Z,874.00
2024-01-24T02:20:57.523Z,874.00
2024-01-24T02:21:57.583Z,874.00
2024-01-24T02:22:57.570Z,873.00
2024-01-24T02:23:57.551Z,872.00
2024-01-24T02:24:57.567Z,869.00
2024-01-24T02:25:57.545Z,868.00
2024-01-24T02:26:57.532Z,871.00
2024-01-24T02:27:57.621Z,873.00
2024-01-24T02:28:57.537Z,871.00
2024-01-24T02:29:57.562Z,872.00
2024-01-24T02:30:57.603Z,873.00
2024-01-24T02:31:57.615Z,871.00
2024-01-24T02:32:57.681Z,868.00
2024-01-24T02:33:57.627Z,869.00
2024-01-24T02:34:57.542Z,869.00
2024-01-24T02:35:57.557Z,864.00
2024-01-24T02:36:57.609Z,865.00
2024-01-24T02:37:57.566Z,865.00
2024-01-24T02:38:58.922Z,864.00
2024-01-24T02:39:57.624Z,863.00
2024-01-24T02:40:57.588Z,868.00
2024-01-24T02:41:57.562Z,866.00
2024-01-24T02:42:57.593Z,868.00
2024-01-24T02:43:57.577Z,869.00
2024-01-24T02:44:57.577Z,867.00
2024-01-24T02:45:57.621Z,866.00
2024-01-24T02:46:57.556Z,865.00
2024-01-24T02:47:57.629Z,865.00
2024-01-24T02:48:58.683Z,865.00
2024-01-24T02:49:57.596Z,864.00
2024-01-24T02:50:57.593Z,863.00
2024-01-24T02:51:57.646Z,864.00
2024-01-24T02:52:57.598Z,862.00
2024-01-24T02:53:57.606Z,861.00
2024-01-24T02:54:57.630Z,859.00
2024-01-24T02:55:57.642Z,859.00
2024-01-24T02:56:57.741Z,860.00
2024-01-24T02:57:57.729Z,860.00
2024-01-24T02:58:57.704Z,860.00
2024-01-24T02:59:57.712Z,862.00
2024-01-24T03:00:57.901Z,859.00
2024-01-24T03:02:10.485Z,860.00
2024-01-24T03:02:57.756Z,858.00
2024-01-24T03:03:57.824Z,856.00
2024-01-24T03:04:57.773Z,855.00
2024-01-24T03:05:57.775Z,856.00
2024-01-24T03:06:57.944Z,856.00
2024-01-24T03:07:58.568Z,858.00
2024-01-24T03:08:57.871Z,857.00
2024-01-24T03:09:57.802Z,859.00
2024-01-24T03:10:57.746Z,856.00
2024-01-24T03:11:57.832Z,853.00
2024-01-24T03:12:57.771Z,851.00
2024-01-24T03:13:57.760Z,854.00
2024-01-24T03:14:57.746Z,853.00
2024-01-24T03:15:57.876Z,852.00
2024-01-24T03:16:57.752Z,854.00
2024-01-24T03:17:57.841Z,856.00
2024-01-24T03:18:57.898Z,856.00
2024-01-24T03:19:57.773Z,852.00
2024-01-24T03:20:57.787Z,853.00
2024-01-24T03:21:57.866Z,855.00
2024-01-24T03:22:57.768Z,855.00
2024-01-24T03:23:57.784Z,853.00
2024-01-24T03:24:57.882Z,856.00
2024-01-24T03:25:57.788Z,856.00
2024-01-24T03:26:57.789Z,856.00
2024-01-24T03:27:57.874Z,855.00
2024-01-24T03:28:57.789Z,855.00
2024-01-24T03:29:57.778Z,855.00
2024-01-24T03:30:57.816Z,852.00
2024-01-24T03:31:57.794Z,853.00
2024-01-24T03:32:57.807Z,853.00
2024-01-24T03:33:57.912Z,851.00
2024-01-24T03:34:57.855Z,848.00
2024-01-24T03:35:57.808Z,845.00
2024-01-24T03:36:57.799Z,846.00
2024-01-24T03:37:57.795Z,848.00
2024-01-24T03:38:57.785Z,851.00
2024-01-24T03:39:57.870Z,847.00
2024-01-24T03:40:57.788Z,845.00
2024-01-24T03:41:57.793Z,843.00
2024-01-24T03:42:57.807Z,844.00
2024-01-24T03:43:57.990Z,844.00
2024-01-24T03:44:57.789Z,844.00
2024-01-24T03:45:57.846Z,843.00
2024-01-24T03:46:57.802Z,842.00
2024-01-24T03:47:57.814Z,841.00
2024-01-24T03:48:57.894Z,841.00
2024-01-24T03:49:57.853Z,838.00
2024-01-24T03:50:57.780Z,840.00
2024-01-24T03:51:57.916Z,839.00
2024-01-24T03:52:57.792Z,837.00
2024-01-24T03:53:57.799Z,835.00
2024-01-24T03:54:57.890Z,835.00
2024-01-24T03:55:57.809Z,834.00
2024-01-24T03:56:57.813Z,833.00
2024-01-24T03:57:57.858Z,836.00
2024-01-24T03:58:57.795Z,837.00
2024-01-24T03:59:57.851Z,836.00
2024-01-24T04:00:57.877Z,837.00
2024-01-24T04:01:57.812Z,835.00
2024-01-24T04:02:57.809Z,836.00
2024-01-24T04:03:57.909Z,834.00
2024-01-24T04:04:57.840Z,834.00
2024-01-24T04:05:57.825Z,833.00
2024-01-24T04:06:57.848Z,830.00
2024-01-24T04:07:57.835Z,830.00
2024-01-24T04:08:57.819Z,829.00
2024-01-24T04:09:57.864Z,826.00
2024-01-24T04:10:57.809Z,826.00
2024-01-24T04:11:57.856Z,825.00
2024-01-24T04:12:57.924Z,821.00
2024-01-24T04:13:57.815Z,822.00
2024-01-24T04:14:57.847Z,824.00
2024-01-24T04:15:57.879Z,819.00
2024-01-24T04:17:00.864Z,820.00
2024-01-24T04:17:57.893Z,820.00
2024-01-24T04:18:57.891Z,819.00
2024-01-24T04:19:57.877Z,817.00
2024-01-24T04:20:57.832Z,814.00
2024-01-24T04:21:57.870Z,814.00
2024-01-24T04:22:57.827Z,815.00
2024-01-24T04:23:57.851Z,814.00
2024-01-24T04:24:57.855Z,813.00
2024-01-24T04:25:57.840Z,813.00
2024-01-24T04:26:57.833Z,812.00
2024-01-24T04:27:57.879Z,810.00
2024-01-24T04:28:57.866Z,814.00
2024-01-24T04:29:57.854Z,817.00
2024-01-24T04:30:57.971Z,819.00
2024-01-24T04:31:57.854Z,820.00
2024-01-24T04:32:57.888Z,819.00
2024-01-24T04:33:57.989Z,821.00
2024-01-24T04:35:05.477Z,814.00
2024-01-24T04:36:05.252Z,817.00
2024-01-24T04:37:05.276Z,817.00
2024-01-24T04:38:05.296Z,815.00
2024-01-24T04:39:05.267Z,816.00
2024-01-24T04:40:05.327Z,818.00
2024-01-24T04:41:05.262Z,818.00
2024-01-24T04:42:12.014Z,817.00
2024-01-24T04:43:06.321Z,815.00
2024-01-24T04:44:05.268Z,814.00
2024-01-24T04:45:05.281Z,815.00
2024-01-24T04:46:05.298Z,815.00
2024-01-24T04:47:05.298Z,815.00
2024-01-24T04:48:05.309Z,816.00
2024-01-24T04:49:05.354Z,816.00
2024-01-24T04:50:05.440Z,814.00
2024-01-24T04:51:05.272Z,813.00
2024-01-24T04:52:05.273Z,814.00
2024-01-24T04:53:05.281Z,812.00
2024-01-24T04:54:05.257Z,811.00
2024-01-24T04:55:05.266Z,813.00
2024-01-24T04:56:05.265Z,813.00
2024-01-24T04:57:05.279Z,816.00
2024-01-24T04:58:05.282Z,815.00
2024-01-24T04:59:05.282Z,813.00
2024-01-24T05:00:05.267Z,814.00
2024-01-24T05:01:05.407Z,815.00
2024-01-24T05:02:05.274Z,813.00
2024-01-24T05:03:05.281Z,816.00
2024-01-24T05:04:05.359Z,816.00
2024-01-24T05:05:05.286Z,819.00
2024-01-24T05:06:10.445Z,817.00
2024-01-24T05:07:06.309Z,815.00
2024-01-24T05:08:05.304Z,813.00
2024-01-24T05:09:05.290Z,810.00
2024-01-24T05:10:05.283Z,808.00
2024-01-24T05:11:05.293Z,807.00
2024-01-24T05:12:05.306Z,805.00
2024-01-24T05:13:05.314Z,805.00
2024-01-24T05:14:05.316Z,808.00
2024-01-24T05:15:05.298Z,806.00
2024-01-24T05:16:05.316Z,804.00
2024-01-24T05:17:05.354Z,806.00
2024-01-24T05:18:05.366Z,806.00
2024-01-24T05:19:05.381Z,804.00
2024-01-24T05:20:05.309Z,804.00
2024-01-24T05:21:05.318Z,807.00
2024-01-24T05:22:05.304Z,809.00
2024-01-24T05:23:05.320Z,810.00
2024-01-24T05:24:05.305Z,812.00
2024-01-24T05:25:05.315Z,809.00
2024-01-24T05:26:05.315Z,809.00
2024-01-24T05:27:05.365Z,808.00
2024-01-24T05:28:05.309Z,808.00
2024-01-24T05:29:05.313Z,810.00
2024-01-24T05:30:15.711Z,806.00
2024-01-24T05:31:06.333Z,806.00
2024-01-24T05:32:05.360Z,804.00
2024-01-24T05:33:05.347Z,804.00
2024-01-24T05:34:05.377Z,804.00
2024-01-24T05:35:05.374Z,804.00
2024-01-24T05:36:05.318Z,805.00
2024-01-24T05:37:05.376Z,805.00
2024-01-24T05:38:05.328Z,803.00
2024-01-24T05:39:05.335Z,805.00
2024-01-24T05:40:05.362Z,803.00
2024-01-24T05:41:05.336Z,800.00
2024-01-24T05:42:05.336Z,800.00
2024-01-24T05:43:05.415Z,798.00
2024-01-24T05:44:05.352Z,797.00
2024-01-24T05:45:05.347Z,797.00
2024-01-24T05:46:05.385Z,797.00
2024-01-24T05:47:05.881Z,797.00
2024-01-24T05:48:05.428Z,796.00
2024-01-24T05:49:05.501Z,797.00
2024-01-24T05:50:05.371Z,798.00
2024-01-24T05:51:05.332Z,797.00
2024-01-24T05:52:05.385Z,797.00
2024-01-24T05:53:05.342Z,800.00
2024-01-24T05:54:05.339Z,801.00
2024-01-24T05:55:05.398Z,800.00
2024-01-24T05:56:05.334Z,802.00
2024-01-24T05:57:05.352Z,804.00
2024-01-24T05:58:05.354Z,802.00
2024-01-24T05:59:05.341Z,800.00
2024-01-24T06:00:05.363Z,799.00
2024-01-24T06:01:05.426Z,797.00
2024-01-24T06:02:05.401Z,793.00
2024-01-24T06:03:05.351Z,793.00
2024-01-24T06:04:05.409Z,796.00
2024-01-24T06:05:05.530Z,796.00
2024-01-24T06:06:05.443Z,796.00
2024-01-24T06:07:05.418Z,797.00
2024-01-24T06:08:05.341Z,798.00
2024-01-24T06:09:05.340Z,799.00
2024-01-24T06:10:05.365Z,799.00
2024-01-24T06:11:05.355Z,798.00
2024-01-24T06:12:05.357Z,797.00
2024-01-24T06:13:05.345Z,796.00
2024-01-24T06:14:05.348Z,797.00
2024-01-24T06:15:05.361Z,795.00
2024-01-24T06:16:05.354Z,791.00
2024-01-24T06:17:05.371Z,792.00
2024-01-24T06:18:05.422Z,791.00
2024-01-24T06:19:05.434Z,790.00
2024-01-24T06:20:05.343Z,788.00
2024-01-24T06:21:05.364Z,788.00
2024-01-24T06:22:05.372Z,788.00
2024-01-24T06:23:05.381Z,788.00
2024-01-24T06:24:05.348Z,786.00
2024-01-24T06:25:07.511Z,789.00
2024-01-24T06:26:05.554Z,790.00
2024-01-24T06:27:05.579Z,791.00
2024-01-24T06:28:05.555Z,790.00
2024-01-24T06:29:05.578Z,788.00
2024-01-24T06:30:18.486Z,789.00
2024-01-24T06:31:06.619Z,790.00
2024-01-24T06:32:05.968Z,792.00
2024-01-24T06:33:05.619Z,792.00
2024-01-24T06:34:05.615Z,794.00
2024-01-24T06:35:05.583Z,796.00
2024-01-24T06:36:05.598Z,796.00
2024-01-24T06:37:09.709Z,796.00
2024-01-24T06:38:05.582Z,799.00
2024-01-24T06:39:05.585Z,806.00
2024-01-24T06:40:05.594Z,813.00
2024-01-24T06:41:05.606Z,815.00
2024-01-24T06:42:05.594Z,818.00
2024-01-24T06:43:05.616Z,823.00
2024-01-24T06:44:05.588Z,827.00
2024-01-24T06:45:05.589Z,833.00
2024-01-24T06:46:05.620Z,845.00
2024-01-24T06:47:05.594Z,882.00
2024-01-24T06:48:05.607Z,903.00
2024-01-24T06:49:05.649Z,904.00
2024-01-24T06:50:05.584Z,910.00
2024-01-24T06:51:05.594Z,865.00
2024-01-24T06:52:05.625Z,733.00
2024-01-24T06:53:05.604Z,707.00
2024-01-24T06:54:05.621Z,712.00
2024-01-24T06:55:05.588Z,674.00
2024-01-24T06:56:05.583Z,664.00
2024-01-24T06:57:05.641Z,646.00
2024-01-24T06:58:07.146Z,626.00
2024-01-24T06:59:05.598Z,619.00
2024-01-24T07:00:05.592Z,607.00
2024-01-24T07:01:05.682Z,612.00
2024-01-24T07:02:05.594Z,617.00
2024-01-24T07:03:05.665Z,617.00
2024-01-24T07:04:05.652Z,618.00
2024-01-24T07:05:05.669Z,617.00
2024-01-24T07:06:05.646Z,614.00
2024-01-24T07:07:05.637Z,610.00
2024-01-24T07:08:05.598Z,603.00
2024-01-24T07:09:05.610Z,595.00
2024-01-24T07:10:05.680Z,584.00
2024-01-24T07:11:05.622Z,583.00
2024-01-24T07:12:05.621Z,582.00
2024-01-24T07:13:05.679Z,580.00
2024-01-24T07:14:05.615Z,582.00
2024-01-24T07:15:05.614Z,578.00
2024-01-24T07:16:05.750Z,576.00
2024-01-24T07:17:05.617Z,575.00
2024-01-24T07:18:05.718Z,572.00
2024-01-24T07:19:05.701Z,571.00
2024-01-24T07:20:05.628Z,568.00
2024-01-24T07:21:05.634Z,570.00
2024-01-24T07:22:05.744Z,567.00
2024-01-24T07:23:05.607Z,567.00
2024-01-24T07:24:05.636Z,563.00
2024-01-24T07:25:05.666Z,561.00
2024-01-24T07:26:05.636Z,562.00
2024-01-24T07:27:05.630Z,562.00
2024-01-24T07:28:05.715Z,563.00
2024-01-24T07:29:05.653Z,566.00
2024-01-24T07:30:05.718Z,563.00
2024-01-24T07:31:05.671Z,561.00
2024-01-24T07:32:10.165Z,557.00
2024-01-24T07:33:05.673Z,554.00
2024-01-24T07:34:05.702Z,552.00
2024-01-24T07:35:05.717Z,554.00
2024-01-24T07:36:05.627Z,553.00
2024-01-24T07:37:05.667Z,556.00
2024-01-24T07:38:05.641Z,558.00
2024-01-24T07:39:05.674Z,558.00
2024-01-24T07:40:05.686Z,558.00
2024-01-24T07:41:05.665Z,563.00
2024-01-24T07:42:05.665Z,569.00
2024-01-24T07:43:05.746Z,571.00
2024-01-24T07:44:05.679Z,570.00
2024-01-24T07:45:05.662Z,570.00
2024-01-24T07:46:06.854Z,570.00
2024-01-24T07:47:05.661Z,568.00
2024-01-24T07:48:05.693Z,565.00
2024-01-24T07:49:05.712Z,564.00
2024-01-24T07:50:05.833Z,562.00
2024-01-24T07:51:05.664Z,564.00
2024-01-24T07:52:05.827Z,565.00
2024-01-24T07:53:05.687Z,566.00
2024-01-24T07:54:05.664Z,567.00
2024-01-24T07:55:05.728Z,564.00
2024-01-24T07:56:11.391Z,563.00
2024-01-24T07:57:06.696Z,564.00
2024-01-24T07:58:05.767Z,565.00
2024-01-24T07:59:05.658Z,562.00
2024-01-24T08:00:05.784Z,561.00
2024-01-24T08:01:05.732Z,560.00
2024-01-24T08:02:05.717Z,561.00
2024-01-24T08:03:05.711Z,558.00
2024-01-24T08:04:05.779Z,563.00
2024-01-24T08:05:05.839Z,564.00
2024-01-24T08:06:05.765Z,562.00
2024-01-24T08:07:06.570Z,560.00
2024-01-24T08:08:05.713Z,559.00
2024-01-24T08:09:07.713Z,559.00
2024-01-24T08:10:05.840Z,562.00
2024-01-24T08:11:05.782Z,565.00
2024-01-24T08:12:05.781Z,566.00
2024-01-24T08:13:05.812Z,567.00
2024-01-24T08:14:05.788Z,565.00
2024-01-24T08:15:05.784Z,564.00
2024-01-24T08:16:05.859Z,562.00
2024-01-24T08:17:05.800Z,559.00
2024-01-24T08:18:05.838Z,558.00
2024-01-24T08:19:05.860Z,559.00
2024-01-24T08:20:05.835Z,557.00
2024-01-24T08:21:08.470Z,556.00
2024-01-24T08:22:05.880Z,553.00
2024-01-24T08:23:05.807Z,553.00
2024-01-24T08:24:05.796Z,554.00
2024-01-24T08:25:05.850Z,553.00
2024-01-24T08:26:05.810Z,554.00
2024-01-24T08:27:05.855Z,557.00
2024-01-24T08:28:05.941Z,553.00
2024-01-24T08:29:05.804Z,553.00
2024-01-24T08:30:05.810Z,551.00
2024-01-24T08:31:05.853Z,550.00
2024-01-24T08:32:06.596Z,549.00
2024-01-24T08:33:05.940Z,546.00
2024-01-24T08:34:05.965Z,544.00
2024-01-24T08:35:05.897Z,546.00
2024-01-24T08:36:06.465Z,546.00
2024-01-24T08:37:05.846Z,546.00
2024-01-24T08:38:05.823Z,544.00
2024-01-24T08:39:05.835Z,544.00
2024-01-24T08:40:05.818Z,547.00
2024-01-24T08:41:05.820Z,547.00
2024-01-24T08:42:05.876Z,545.00
2024-01-24T08:43:05.841Z,545.00
2024-01-24T08:44:05.819Z,547.00
2024-01-24T08:45:05.813Z,547.00
2024-01-24T08:46:05.973Z,548.00
2024-01-24T08:47:05.823Z,547.00
2024-01-24T08:48:05.983Z,545.00
2024-01-24T08:49:05.925Z,545.00
2024-01-24T08:50:05.889Z,622.00
2024-01-24T08:51:05.823Z,752.00
2024-01-24T08:52:05.883Z,782.00
2024-01-24T08:53:05.831Z,794.00
2024-01-24T08:54:05.858Z,917.00
2024-01-24T08:55:06.016Z,991.00
2024-01-24T08:56:05.872Z,997.00
2024-01-24T08:57:05.830Z,1014.00
2024-01-24T08:58:05.936Z,1063.00
2024-01-24T08:59:05.824Z,1126.00
2024-01-24T09:00:05.864Z,1153.00
2024-01-24T09:01:05.943Z,1159.00
2024-01-24T09:02:05.942Z,1168.00
2024-01-24T09:03:05.879Z,1175.00
2024-01-24T09:04:06.084Z,1185.00
2024-01-24T09:05:05.859Z,1242.00
2024-01-24T09:06:05.943Z,1285.00
2024-01-24T09:07:05.884Z,1291.00
2024-01-24T09:08:05.844Z,1302.00
2024-01-24T09:09:05.878Z,1319.00
2024-01-24T09:10:05.948Z,1333.00
2024-01-24T09:11:05.921Z,1355.00
2024-01-24T09:12:05.959Z,1381.00
2024-01-24T09:13:06.151Z,1397.00
2024-01-24T09:14:06.002Z,1452.00
2024-01-24T09:15:06.015Z,1472.00
2024-01-24T09:16:06.067Z,1510.00
2024-01-24T09:17:06.018Z,1540.00
2024-01-24T09:18:06.128Z,1562.00
2024-01-24T09:19:06.349Z,1599.00
2024-01-24T09:20:06.196Z,1627.00
2024-01-24T09:21:06.139Z,1652.00
2024-01-24T09:22:06.191Z,1673.00
2024-01-24T09:23:06.164Z,1704.00
2024-01-24T09:24:06.214Z,1730.00
2024-01-24T09:25:08.289Z,1761.00
2024-01-24T09:26:06.221Z,1783.00
2024-01-24T09:27:06.232Z,1819.00
2024-01-24T09:28:06.263Z,1847.00
2024-01-24T09:29:06.462Z,1866.00
2024-01-24T09:30:06.248Z,1900.00
2024-01-24T09:31:06.282Z,1914.00
2024-01-24T09:32:06.245Z,1928.00
2024-01-24T09:33:06.303Z,1944.00
2024-01-24T09:34:06.366Z,2012.00
2024-01-24T09:35:06.592Z,2033.00
2024-01-24T09:36:06.257Z,2142.00
2024-01-24T09:37:06.260Z,2109.00
2024-01-24T09:38:06.252Z,2120.00
2024-01-24T09:39:06.256Z,2128.00
2024-01-24T09:40:06.494Z,2149.00
2024-01-24T09:41:06.270Z,2175.00
2024-01-24T09:42:06.262Z,2190.00
2024-01-24T09:43:06.421Z,2207.00
2024-01-24T09:44:06.304Z,2235.00
2024-01-24T09:45:08.367Z,2285.00
2024-01-24T09:46:06.258Z,2311.00
2024-01-24T09:47:06.264Z,2320.00
2024-01-24T09:48:06.321Z,1988.00
2024-01-24T09:49:06.361Z,1540.00
2024-01-24T09:50:06.251Z,1322.00
2024-01-24T09:51:06.249Z,1128.00
2024-01-24T09:52:06.301Z,1180.00
2024-01-24T09:53:06.323Z,1302.00
2024-01-24T09:54:06.422Z,1378.00
2024-01-24T09:55:06.806Z,1482.00
2024-01-24T09:56:06.547Z,1525.00
2024-01-24T09:57:06.600Z,1566.00
2024-01-24T09:58:08.847Z,1605.00
2024-01-24T09:59:06.670Z,1616.00
2024-01-24T10:00:06.642Z,1732.00
2024-01-24T10:01:06.714Z,1773.00
2024-01-24T10:02:07.517Z,1797.00
2024-01-24T10:03:06.650Z,1807.00
2024-01-24T10:04:06.834Z,1877.00
2024-01-24T10:05:06.641Z,1894.00
2024-01-24T10:06:06.705Z,1914.00
2024-01-24T10:07:06.712Z,1934.00
2024-01-24T10:08:06.653Z,1998.00
2024-01-24T10:09:08.764Z,2016.00
2024-01-24T10:10:06.831Z,2027.00
2024-01-24T10:11:06.841Z,2044.00
2024-01-24T10:12:06.905Z,2104.00
2024-01-24T10:13:06.969Z,2151.00
2024-01-24T10:14:06.950Z,2173.00
2024-01-24T10:15:07.477Z,2186.00
2024-01-24T10:16:09.747Z,2249.00
2024-01-24T10:17:06.981Z,2266.00
2024-01-24T10:18:07.094Z,2282.00
2024-01-24T10:19:07.052Z,2331.00
2024-01-24T10:20:07.026Z,2380.00
2024-01-24T10:21:07.080Z,2429.00
2024-01-24T10:22:10.328Z,2446.00
2024-01-24T10:23:06.970Z,2464.00
2024-01-24T10:24:06.974Z,2503.00
2024-01-24T10:25:07.081Z,2528.00
2024-01-24T10:26:08.065Z,2546.00
2024-01-24T10:27:07.016Z,2558.00
2024-01-24T10:28:07.066Z,2576.00
2024-01-24T10:29:06.970Z,2604.00
2024-01-24T10:30:06.992Z,2630.00
2024-01-24T10:31:07.068Z,2652.00
2024-01-24T10:32:07.038Z,2676.00
2024-01-24T10:33:07.050Z,2690.00
2024-01-24T10:34:07.657Z,2713.00
2024-01-24T10:35:07.102Z,2758.00
2024-01-24T10:36:14.452Z,2785.00
2024-01-24T10:37:08.005Z,2807.00
2024-01-24T10:38:07.007Z,2826.00
2024-01-24T10:39:07.044Z,2908.00
2024-01-24T10:40:07.064Z,2916.00
2024-01-24T10:41:07.001Z,2922.00
2024-01-24T10:42:10.317Z,2929.00
2024-01-24T10:43:08.091Z,2948.00
2024-01-24T10:44:07.012Z,2970.00
2024-01-24T10:45:07.040Z,2989.00
2024-01-24T10:46:07.077Z,3032.00
2024-01-24T10:47:07.006Z,3063.00
2024-01-24T10:48:07.087Z,3078.00
2024-01-24T10:49:07.367Z,3129.00
2024-01-24T10:50:07.083Z,3195.00
2024-01-24T10:51:07.043Z,3190.00
2024-01-24T10:52:07.116Z,3220.00
2024-01-24T10:53:07.022Z,3234.00
2024-01-24T10:54:07.024Z,3297.00
2024-01-24T10:55:07.313Z,2569.00
2024-01-24T10:56:07.216Z,2280.00
2024-01-24T10:57:07.202Z,1929.00
2024-01-24T10:58:08.657Z,2119.00
2024-01-24T10:59:07.207Z,2259.00
2024-01-24T11:00:07.215Z,2391.00
2024-01-24T11:01:07.286Z,2411.00
2024-01-24T11:02:07.227Z,2407.00
2024-01-24T11:03:07.271Z,2488.00
2024-01-24T11:04:09.866Z,2402.00
2024-01-24T11:05:07.308Z,2404.00
2024-01-24T11:06:07.270Z,2401.00
2024-01-24T11:07:07.293Z,2375.00
2024-01-24T11:08:07.305Z,2315.00
2024-01-24T11:09:07.260Z,2301.00
2024-01-24T11:10:09.417Z,2308.00
2024-01-24T11:11:07.251Z,2288.00
2024-01-24T11:12:07.257Z,2160.00
2024-01-24T11:13:07.300Z,2134.00
2024-01-24T11:14:07.264Z,2116.00
2024-01-24T11:15:07.370Z,2120.00
2024-01-24T11:16:09.494Z,2099.00
2024-01-24T11:17:07.593Z,2068.00
2024-01-24T11:18:07.485Z,1990.00
2024-01-24T11:19:07.581Z,1997.00
2024-01-24T11:20:07.640Z,1997.00
2024-01-24T11:21:07.621Z,1993.00
2024-01-24T11:22:13.663Z,1989.00
2024-01-24T11:23:08.693Z,1985.00
2024-01-24T11:24:07.708Z,1989.00
2024-01-24T11:25:07.726Z,1998.00
2024-01-24T11:26:07.705Z,2015.00
2024-01-24T11:27:07.720Z,2044.00
2024-01-24T11:28:07.831Z,2057.00
2024-01-24T11:29:07.698Z,2070.00
2024-01-24T11:30:07.976Z,2090.00
2024-01-24T11:31:07.751Z,2109.00
2024-01-24T11:32:11.476Z,2144.00
2024-01-24T11:33:08.875Z,2167.00
2024-01-24T11:34:07.805Z,2184.00
2024-01-24T11:35:07.729Z,2196.00
2024-01-24T11:36:07.757Z,2214.00
2024-01-24T11:37:07.765Z,2231.00
2024-01-24T11:38:13.319Z,2256.00
2024-01-24T11:39:08.737Z,2296.00
2024-01-24T11:40:07.835Z,2318.00
2024-01-24T11:41:07.809Z,2337.00
2024-01-24T11:42:07.741Z,2382.00
2024-01-24T11:43:07.862Z,2397.00
2024-01-24T11:44:07.744Z,2413.00
2024-01-24T11:45:07.729Z,2424.00
2024-01-24T11:46:08.516Z,2431.00
2024-01-24T11:47:07.816Z,2433.00
2024-01-24T11:48:07.975Z,2434.00
2024-01-24T11:49:07.819Z,2443.00
2024-01-24T11:50:07.885Z,2587.00
2024-01-24T11:51:07.756Z,2568.00
2024-01-24T11:52:07.797Z,2563.00
2024-01-24T11:53:07.743Z,2573.00
2024-01-24T11:54:07.751Z,2598.00
2024-01-24T11:55:07.847Z,2619.00
2024-01-24T11:56:07.996Z,2631.00
2024-01-24T11:57:07.929Z,2650.00
2024-01-24T11:58:07.934Z,2688.00
2024-01-24T11:59:07.914Z,2727.00
2024-01-24T12:00:07.930Z,2762.00
2024-01-24T12:01:08.120Z,2791.00
2024-01-24T12:02:07.996Z,2838.00
2024-01-24T12:03:08.020Z,2870.00
2024-01-24T12:04:08.151Z,2894.00
2024-01-24T12:05:08.201Z,2933.00
2024-01-24T12:06:08.168Z,2955.00
2024-01-24T12:07:08.242Z,2963.00
2024-01-24T12:08:08.131Z,2983.00
2024-01-24T12:09:08.160Z,3006.00
2024-01-24T12:10:08.213Z,3034.00
2024-01-24T12:11:08.169Z,3048.00
2024-01-24T12:12:08.179Z,3060.00
2024-01-24T12:13:08.285Z,3070.00
2024-01-24T12:14:08.201Z,3080.00
2024-01-24T12:15:08.204Z,3097.00
2024-01-24T12:16:08.379Z,3292.00
2024-01-24T12:17:08.220Z,3280.00
2024-01-24T12:18:08.290Z,3282.00
2024-01-24T12:19:08.322Z,3286.00
2024-01-24T12:20:08.351Z,3316.00
2024-01-24T12:21:08.239Z,3341.00
2024-01-24T12:22:08.315Z,3368.00
2024-01-24T12:23:08.259Z,3394.00